DLH1688 EDDM-LKPR
Flight info
| Callsign | DLH1688 |
|---|---|
| Flight time | 0h 34m |
| Altitude | 26000 |
| Route | AKINI1Q AKINI Y104 MAMOR L132 AGNAV/N0412F250 DCT LOMKI |
| Aircraft | A320/M-SDE3FGHIRWY/LB1 |
Departure
| Time | 2026-05-01 12:38 |
|---|---|
| Airport | Munich Airport (EDDM) |
Arrival
| Time | 2026-05-01 13:13 |
|---|---|
| Airport | Václav Havel Airport Prague (LKPR) |
| Time | Latitude | Longitude | Altitude | Speed | Heading |
|---|---|---|---|---|---|
| 2026-05-01 11:49 | 48.35657 | 11.79722 | 1458 ft | 0 kts | 84° |
| 2026-05-01 12:22 | 48.35657 | 11.79721 | 1467 ft | 1 kts | 83° |
| 2026-05-01 12:22 | 48.35656 | 11.79705 | 1462 ft | 1 kts | 83° |
| 2026-05-01 12:22 | 48.35654 | 11.79690 | 1463 ft | 1 kts | 79° |
| 2026-05-01 12:22 | 48.35652 | 11.79675 | 1460 ft | 1 kts | 79° |
| 2026-05-01 12:23 | 48.35650 | 11.79660 | 1464 ft | 2 kts | 79° |
| 2026-05-01 12:23 | 48.35648 | 11.79645 | 1458 ft | 1 kts | 79° |
| 2026-05-01 12:23 | 48.35646 | 11.79629 | 1459 ft | 1 kts | 79° |
| 2026-05-01 12:23 | 48.35644 | 11.79614 | 1456 ft | 1 kts | 79° |
| 2026-05-01 12:24 | 48.35642 | 11.79599 | 1459 ft | 1 kts | 79° |
| 2026-05-01 12:24 | 48.35640 | 11.79584 | 1467 ft | 1 kts | 55° |
| 2026-05-01 12:24 | 48.35634 | 11.79572 | 1458 ft | 1 kts | 28° |
| 2026-05-01 12:24 | 48.35625 | 11.79566 | 1459 ft | 1 kts | 1° |
| 2026-05-01 12:25 | 48.35624 | 11.79566 | 1459 ft | 0 kts | 359° |
| 2026-05-01 12:28 | 48.35763 | 11.79540 | 1460 ft | 8 kts | 353° |
| 2026-05-01 12:28 | 48.35823 | 11.79530 | 1464 ft | 10 kts | 353° |
| 2026-05-01 12:28 | 48.35880 | 11.79510 | 1464 ft | 4 kts | 327° |
| 2026-05-01 12:29 | 48.35897 | 11.79459 | 1464 ft | 7 kts | 272° |
| 2026-05-01 12:29 | 48.35899 | 11.79388 | 1467 ft | 6 kts | 275° |
| 2026-05-01 12:29 | 48.35953 | 11.79343 | 1467 ft | 4 kts | 351° |
| 2026-05-01 12:30 | 48.35979 | 11.79336 | 1460 ft | 2 kts | 352° |
| 2026-05-01 12:30 | 48.36000 | 11.79334 | 1462 ft | 6 kts | 356° |
| 2026-05-01 12:30 | 48.36055 | 11.79317 | 1465 ft | 11 kts | 335° |
| 2026-05-01 12:31 | 48.36080 | 11.79182 | 1468 ft | 15 kts | 260° |
| 2026-05-01 12:31 | 48.36068 | 11.79039 | 1468 ft | 13 kts | 263° |
| 2026-05-01 12:31 | 48.36058 | 11.78887 | 1468 ft | 17 kts | 263° |
| 2026-05-01 12:31 | 48.36043 | 11.78694 | 1467 ft | 18 kts | 264° |
| 2026-05-01 12:32 | 48.36029 | 11.78508 | 1467 ft | 17 kts | 263° |
| 2026-05-01 12:32 | 48.36004 | 11.78184 | 1458 ft | 14 kts | 263° |
| 2026-05-01 12:32 | 48.35993 | 11.78043 | 1467 ft | 13 kts | 263° |
| 2026-05-01 12:33 | 48.35985 | 11.77943 | 1464 ft | 0 kts | 263° |
| 2026-05-01 12:33 | 48.35985 | 11.77937 | 1465 ft | 2 kts | 263° |
| 2026-05-01 12:33 | 48.35982 | 11.77903 | 1467 ft | 4 kts | 263° |
| 2026-05-01 12:33 | 48.35980 | 11.77877 | 1467 ft | 3 kts | 263° |
| 2026-05-01 12:34 | 48.35974 | 11.77799 | 1467 ft | 9 kts | 263° |
| 2026-05-01 12:34 | 48.35968 | 11.77717 | 1467 ft | 7 kts | 263° |
| 2026-05-01 12:34 | 48.35957 | 11.77573 | 1467 ft | 19 kts | 263° |
| 2026-05-01 12:34 | 48.35942 | 11.77388 | 1464 ft | 17 kts | 264° |
| 2026-05-01 12:35 | 48.35932 | 11.77243 | 1460 ft | 6 kts | 264° |
| 2026-05-01 12:35 | 48.35927 | 11.77179 | 1467 ft | 6 kts | 263° |
| 2026-05-01 12:35 | 48.35925 | 11.77107 | 1461 ft | 11 kts | 278° |
| 2026-05-01 12:35 | 48.35978 | 11.76999 | 1466 ft | 13 kts | 325° |
| 2026-05-01 12:36 | 48.36058 | 11.76966 | 1462 ft | 11 kts | 353° |
| 2026-05-01 12:36 | 48.36129 | 11.76953 | 1465 ft | 10 kts | 353° |
| 2026-05-01 12:36 | 48.36155 | 11.76949 | 1461 ft | 0 kts | 353° |
| 2026-05-01 12:36 | 48.36173 | 11.76946 | 1463 ft | 12 kts | 353° |
| 2026-05-01 12:37 | 48.36270 | 11.76963 | 1460 ft | 12 kts | 58° |
| 2026-05-01 12:37 | 48.36301 | 11.77062 | 1467 ft | 10 kts | 83° |
| 2026-05-01 12:37 | 48.36303 | 11.77089 | 1471 ft | 0 kts | 85° |
| 2026-05-01 12:37 | 48.36304 | 11.77120 | 1471 ft | 23 kts | 85° |
| 2026-05-01 12:38 | 48.36354 | 11.77764 | 1461 ft | 96 kts | 83° |
| 2026-05-01 12:38 | 48.36451 | 11.79044 | 1460 ft | 150 kts | 83° |
| 2026-05-01 12:38 | 48.36593 | 11.80697 | 1969 ft | 158 kts | 82° |
| 2026-05-01 12:38 | 48.36742 | 11.82335 | 2884 ft | 157 kts | 84° |
| 2026-05-01 12:39 | 48.36868 | 11.84058 | 3378 ft | 175 kts | 84° |
| 2026-05-01 12:39 | 48.37053 | 11.86007 | 3707 ft | 204 kts | 78° |
| 2026-05-01 12:39 | 48.37635 | 11.88047 | 4298 ft | 219 kts | 50° |
| 2026-05-01 12:39 | 48.38972 | 11.89248 | 5191 ft | 234 kts | 24° |
| 2026-05-01 12:40 | 48.40538 | 11.90148 | 5649 ft | 254 kts | 29° |
| 2026-05-01 12:40 | 48.42131 | 11.91541 | 6211 ft | 270 kts | 38° |
| 2026-05-01 12:40 | 48.43509 | 11.93470 | 7008 ft | 268 kts | 54° |
| 2026-05-01 12:40 | 48.44524 | 11.95805 | 7788 ft | 265 kts | 63° |
| 2026-05-01 12:41 | 48.45400 | 11.98220 | 8636 ft | 268 kts | 63° |
| 2026-05-01 12:41 | 48.46470 | 12.00548 | 9553 ft | 273 kts | 49° |
| 2026-05-01 12:41 | 48.47970 | 12.02393 | 10492 ft | 278 kts | 32° |
| 2026-05-01 12:41 | 48.49775 | 12.03499 | 11326 ft | 284 kts | 15° |
| 2026-05-01 12:42 | 48.51749 | 12.03824 | 12157 ft | 290 kts | 2° |
| 2026-05-01 12:42 | 48.53779 | 12.03778 | 13030 ft | 292 kts | 2° |
| 2026-05-01 12:42 | 48.55821 | 12.03762 | 13886 ft | 295 kts | 3° |
| 2026-05-01 12:42 | 48.57883 | 12.03763 | 14641 ft | 298 kts | 3° |
| 2026-05-01 12:43 | 48.59966 | 12.03771 | 15336 ft | 301 kts | 4° |
| 2026-05-01 12:43 | 48.62053 | 12.03994 | 16004 ft | 301 kts | 14° |
| 2026-05-01 12:43 | 48.64046 | 12.04921 | 16682 ft | 301 kts | 26° |
| 2026-05-01 12:43 | 48.65961 | 12.06242 | 17355 ft | 304 kts | 27° |
| 2026-05-01 12:44 | 48.67898 | 12.07571 | 18024 ft | 307 kts | 27° |
| 2026-05-01 12:44 | 48.69853 | 12.08909 | 18685 ft | 310 kts | 27° |
| 2026-05-01 12:44 | 48.73830 | 12.11628 | 19858 ft | 316 kts | 26° |
| 2026-05-01 12:45 | 48.77917 | 12.14483 | 20509 ft | 339 kts | 27° |
| 2026-05-01 12:45 | 48.80100 | 12.16061 | 20649 ft | 356 kts | 27° |
| 2026-05-01 12:45 | 48.82375 | 12.17716 | 20863 ft | 369 kts | 27° |
| 2026-05-01 12:46 | 48.84714 | 12.19415 | 21326 ft | 374 kts | 27° |
| 2026-05-01 12:46 | 48.87070 | 12.21123 | 21878 ft | 377 kts | 27° |
| 2026-05-01 12:46 | 48.89450 | 12.22843 | 22440 ft | 380 kts | 27° |
| 2026-05-01 12:46 | 48.91856 | 12.24553 | 22984 ft | 383 kts | 26° |
| 2026-05-01 12:47 | 48.94281 | 12.26254 | 23506 ft | 386 kts | 26° |
| 2026-05-01 12:47 | 48.96729 | 12.27966 | 24010 ft | 388 kts | 26° |
| 2026-05-01 12:47 | 48.99189 | 12.29688 | 24430 ft | 391 kts | 26° |
| 2026-05-01 12:47 | 49.01671 | 12.31430 | 24850 ft | 393 kts | 26° |
| 2026-05-01 12:48 | 49.04155 | 12.33179 | 25248 ft | 395 kts | 26° |
| 2026-05-01 12:48 | 49.06654 | 12.34945 | 25627 ft | 397 kts | 26° |
| 2026-05-01 12:48 | 49.09169 | 12.36725 | 26007 ft | 400 kts | 26° |
| 2026-05-01 12:48 | 49.11701 | 12.38523 | 26310 ft | 402 kts | 26° |
| 2026-05-01 12:49 | 49.14234 | 12.40326 | 26379 ft | 402 kts | 26° |
| 2026-05-01 12:49 | 49.16768 | 12.42128 | 26388 ft | 401 kts | 26° |
| 2026-05-01 12:49 | 49.19294 | 12.43926 | 26387 ft | 401 kts | 26° |
| 2026-05-01 12:49 | 49.21826 | 12.45729 | 26388 ft | 401 kts | 26° |
| 2026-05-01 12:50 | 49.24354 | 12.47527 | 26391 ft | 401 kts | 26° |
| 2026-05-01 12:50 | 49.26883 | 12.49329 | 26391 ft | 401 kts | 26° |
| 2026-05-01 12:50 | 49.29412 | 12.51133 | 26385 ft | 401 kts | 26° |
| 2026-05-01 12:50 | 49.31939 | 12.52939 | 26391 ft | 402 kts | 25° |
| 2026-05-01 12:51 | 49.34568 | 12.54395 | 26390 ft | 403 kts | 16° |
| 2026-05-01 12:51 | 49.37315 | 12.55312 | 26391 ft | 404 kts | 13° |
| 2026-05-01 12:51 | 49.42825 | 12.57038 | 26393 ft | 404 kts | 13° |
| 2026-05-01 12:52 | 49.45578 | 12.57904 | 26391 ft | 404 kts | 13° |
| 2026-05-01 12:52 | 49.51082 | 12.59633 | 26396 ft | 404 kts | 13° |
| 2026-05-01 12:52 | 49.53783 | 12.60770 | 26396 ft | 402 kts | 22° |
| 2026-05-01 12:53 | 49.58561 | 12.65107 | 26396 ft | 400 kts | 41° |
| 2026-05-01 12:53 | 49.60526 | 12.68210 | 26409 ft | 399 kts | 49° |
| 2026-05-01 12:53 | 49.62311 | 12.71474 | 26395 ft | 397 kts | 49° |
| 2026-05-01 12:54 | 49.64095 | 12.74732 | 26399 ft | 397 kts | 49° |
| 2026-05-01 12:54 | 49.67639 | 12.81184 | 26399 ft | 397 kts | 49° |
| 2026-05-01 12:54 | 49.69449 | 12.84479 | 26399 ft | 397 kts | 49° |
| 2026-05-01 12:55 | 49.72988 | 12.90955 | 26399 ft | 397 kts | 49° |
| 2026-05-01 12:55 | 49.74765 | 12.94220 | 26396 ft | 397 kts | 49° |
| 2026-05-01 12:55 | 49.76541 | 12.97486 | 26397 ft | 397 kts | 49° |
| 2026-05-01 12:56 | 49.78315 | 13.00752 | 26395 ft | 397 kts | 49° |
| 2026-05-01 12:56 | 49.80091 | 13.04026 | 26395 ft | 397 kts | 49° |
| 2026-05-01 12:56 | 49.81885 | 13.07340 | 26397 ft | 397 kts | 49° |
| 2026-05-01 12:56 | 49.83634 | 13.10577 | 26398 ft | 397 kts | 49° |
| 2026-05-01 12:57 | 49.85403 | 13.13853 | 26402 ft | 397 kts | 50° |
| 2026-05-01 12:57 | 49.88610 | 13.20805 | 26403 ft | 398 kts | 62° |
| 2026-05-01 12:57 | 49.89684 | 13.24760 | 26401 ft | 400 kts | 69° |
| 2026-05-01 12:58 | 49.90409 | 13.28891 | 26283 ft | 393 kts | 77° |
| 2026-05-01 12:58 | 49.90633 | 13.33087 | 26000 ft | 391 kts | 88° |
| 2026-05-01 12:58 | 49.90530 | 13.37294 | 25749 ft | 390 kts | 90° |
| 2026-05-01 12:59 | 49.90694 | 13.45619 | 25260 ft | 383 kts | 76° |
| 2026-05-01 12:59 | 49.91424 | 13.49551 | 25018 ft | 378 kts | 66° |
| 2026-05-01 12:59 | 49.94135 | 13.56434 | 24529 ft | 373 kts | 51° |
| 2026-05-01 13:00 | 49.97306 | 13.62790 | 24075 ft | 370 kts | 52° |
| 2026-05-01 13:00 | 49.98870 | 13.65956 | 23819 ft | 369 kts | 52° |
| 2026-05-01 13:01 | 50.01975 | 13.72280 | 23269 ft | 366 kts | 52° |
| 2026-05-01 13:01 | 50.03512 | 13.75423 | 22997 ft | 365 kts | 52° |
| 2026-05-01 13:01 | 50.06504 | 13.81670 | 22268 ft | 355 kts | 58° |
| 2026-05-01 13:02 | 50.07610 | 13.85078 | 21810 ft | 352 kts | 68° |
| 2026-05-01 13:07 | 50.06096 | 14.55638 | 12011 ft | 291 kts | 122° |
| 2026-05-01 13:07 | 50.04884 | 14.58146 | 11342 ft | 289 kts | 123° |
| 2026-05-01 13:07 | 50.03680 | 14.60633 | 10686 ft | 286 kts | 123° |
| 2026-05-01 13:08 | 50.02376 | 14.62961 | 10016 ft | 288 kts | 139° |
| 2026-05-01 13:08 | 50.00564 | 14.64266 | 9335 ft | 292 kts | 167° |
| 2026-05-01 13:08 | 49.99188 | 14.64310 | 8873 ft | 296 kts | 187° |
| 2026-05-01 13:08 | 49.97325 | 14.63103 | 8172 ft | 298 kts | 217° |
| 2026-05-01 13:09 | 49.96022 | 14.60614 | 7384 ft | 300 kts | 248° |
| 2026-05-01 13:09 | 49.95651 | 14.57436 | 6587 ft | 297 kts | 277° |
| 2026-05-01 13:09 | 49.96266 | 14.54486 | 5792 ft | 291 kts | 304° |
| 2026-05-01 13:09 | 49.97448 | 14.51968 | 5101 ft | 285 kts | 308° |
| 2026-05-01 13:10 | 49.98632 | 14.49589 | 4673 ft | 277 kts | 308° |
| 2026-05-01 13:10 | 49.99792 | 14.47224 | 4295 ft | 273 kts | 308° |
| 2026-05-01 13:10 | 50.00935 | 14.44875 | 3932 ft | 271 kts | 308° |
| 2026-05-01 13:10 | 50.02081 | 14.42520 | 3563 ft | 265 kts | 308° |
| 2026-05-01 13:11 | 50.03158 | 14.40303 | 3199 ft | 250 kts | 308° |
| 2026-05-01 13:11 | 50.04178 | 14.38206 | 2865 ft | 236 kts | 308° |
| 2026-05-01 13:11 | 50.05126 | 14.36253 | 2573 ft | 216 kts | 308° |
| 2026-05-01 13:11 | 50.05993 | 14.34467 | 2287 ft | 198 kts | 308° |
| 2026-05-01 13:12 | 50.06779 | 14.32847 | 2039 ft | 178 kts | 308° |
| 2026-05-01 13:12 | 50.07497 | 14.31365 | 1689 ft | 165 kts | 307° |
| 2026-05-01 13:12 | 50.08153 | 14.30012 | 1667 ft | 150 kts | 308° |
| 2026-05-01 13:12 | 50.08766 | 14.28729 | 1384 ft | 143 kts | 310° |
| 2026-05-01 13:13 | 50.09361 | 14.27514 | 1252 ft | 136 kts | 310° |
| 2026-05-01 13:13 | 50.09841 | 14.26527 | 1204 ft | 77 kts | 307° |
| 2026-05-01 13:13 | 50.10031 | 14.26131 | 1188 ft | 36 kts | 307° |
| 2026-05-01 13:13 | 50.10128 | 14.25932 | 1186 ft | 14 kts | 307° |
| 2026-05-01 13:14 | 50.10196 | 14.25793 | 1184 ft | 18 kts | 311° |
| 2026-05-01 13:14 | 50.10301 | 14.25682 | 1185 ft | 19 kts | 338° |
| 2026-05-01 13:14 | 50.10439 | 14.25661 | 1184 ft | 16 kts | 9° |
| 2026-05-01 13:14 | 50.10502 | 14.25688 | 1184 ft | 11 kts | 21° |
| 2026-05-01 13:15 | 50.10585 | 14.25765 | 1183 ft | 16 kts | 34° |
| 2026-05-01 13:15 | 50.10685 | 14.25871 | 1179 ft | 20 kts | 34° |
| 2026-05-01 13:15 | 50.10786 | 14.25982 | 1174 ft | 12 kts | 35° |
| 2026-05-01 13:15 | 50.10839 | 14.26037 | 1171 ft | 11 kts | 33° |
| 2026-05-01 13:16 | 50.10856 | 14.26147 | 1170 ft | 13 kts | 119° |
| 2026-05-01 13:16 | 50.10817 | 14.26239 | 1172 ft | 8 kts | 119° |
| 2026-05-01 13:16 | 50.10794 | 14.26306 | 1173 ft | 5 kts | 121° |
| 2026-05-01 13:17 | 50.10728 | 14.26289 | 1178 ft | 0 kts | 217° |